sensor_id;sensor_type;location;lat;lon;timestamp;pressure;altitude;pressure_sealevel;temperature;humidity
36598;BME280;22607;49.550;11.940;2023-02-26T00:00:43;96136.00;;;-0.47;94.71
36598;BME280;22607;49.550;11.940;2023-02-26T00:03:09;96146.22;;;-0.57;94.87
36598;BME280;22607;49.550;11.940;2023-02-26T00:05:36;96145.41;;;-0.57;95.57
36598;BME280;22607;49.550;11.940;2023-02-26T00:08:02;96147.53;;;-0.62;96.13
36598;BME280;22607;49.550;11.940;2023-02-26T00:10:31;96143.44;;;-0.76;97.17
36598;BME280;22607;49.550;11.940;2023-02-26T00:12:58;96146.94;;;-0.66;97.96
36598;BME280;22607;49.550;11.940;2023-02-26T00:15:25;96144.72;;;-0.59;99.60
36598;BME280;22607;49.550;11.940;2023-02-26T00:18:01;96146.00;;;-0.54;95.63
36598;BME280;22607;49.550;11.940;2023-02-26T00:20:31;96154.19;;;-0.48;96.80
36598;BME280;22607;49.550;11.940;2023-02-26T00:22:58;96157.13;;;-0.53;95.85
36598;BME280;22607;49.550;11.940;2023-02-26T00:25:25;96153.25;;;-0.47;93.81
36598;BME280;22607;49.550;11.940;2023-02-26T00:27:52;96149.88;;;-0.71;98.13
36598;BME280;22607;49.550;11.940;2023-02-26T00:30:18;96144.03;;;-0.73;99.11
36598;BME280;22607;49.550;11.940;2023-02-26T00:32:45;96152.00;;;-0.64;96.64
36598;BME280;22607;49.550;11.940;2023-02-26T00:35:14;96156.53;;;-0.68;95.47
36598;BME280;22607;49.550;11.940;2023-02-26T00:38:03;96159.84;;;-0.66;95.59
36598;BME280;22607;49.550;11.940;2023-02-26T00:43:20;96155.84;;;-0.70;95.34
36598;BME280;22607;49.550;11.940;2023-02-26T00:49:17;96161.25;;;-0.73;95.92
36598;BME280;22607;49.550;11.940;2023-02-26T00:51:52;96160.31;;;-0.72;94.19
36598;BME280;22607;49.550;11.940;2023-02-26T00:54:28;96172.97;;;-0.92;96.86
36598;BME280;22607;49.550;11.940;2023-02-26T00:56:57;96172.75;;;-1.00;97.54
36598;BME280;22607;49.550;11.940;2023-02-26T00:59:27;96172.84;;;-1.02;97.95
36598;BME280;22607;49.550;11.940;2023-02-26T01:01:54;96175.78;;;-0.95;96.95
36598;BME280;22607;49.550;11.940;2023-02-26T01:04:22;96172.38;;;-0.96;96.89
36598;BME280;22607;49.550;11.940;2023-02-26T01:06:52;96167.81;;;-0.92;93.77
36598;BME280;22607;49.550;11.940;2023-02-26T01:09:31;96175.53;;;-0.92;93.18
36598;BME280;22607;49.550;11.940;2023-02-26T01:12:03;96182.91;;;-1.10;97.60
36598;BME280;22607;49.550;11.940;2023-02-26T01:14:31;96180.69;;;-1.03;99.26
36598;BME280;22607;49.550;11.940;2023-02-26T01:17:03;96185.97;;;-1.16;100.00
36598;BME280;22607;49.550;11.940;2023-02-26T01:19:48;96180.19;;;-1.20;100.00
36598;BME280;22607;49.550;11.940;2023-02-26T01:22:22;96177.97;;;-1.13;100.00
36598;BME280;22607;49.550;11.940;2023-02-26T01:24:57;96185.72;;;-1.13;100.00
36598;BME280;22607;49.550;11.940;2023-02-26T01:27:26;96179.34;;;-1.32;99.65
36598;BME280;22607;49.550;11.940;2023-02-26T01:29:52;96189.09;;;-1.24;98.89
36598;BME280;22607;49.550;11.940;2023-02-26T01:32:24;96184.63;;;-1.34;99.99
36598;BME280;22607;49.550;11.940;2023-02-26T01:35:00;96187.34;;;-1.35;99.34
36598;BME280;22607;49.550;11.940;2023-02-26T01:37:50;96186.97;;;-1.42;99.51
36598;BME280;22607;49.550;11.940;2023-02-26T01:43:23;96191.38;;;-1.55;95.60
36598;BME280;22607;49.550;11.940;2023-02-26T01:48:35;96192.06;;;-1.53;94.72
36598;BME280;22607;49.550;11.940;2023-02-26T01:51:03;96188.78;;;-1.55;94.37
36598;BME280;22607;49.550;11.940;2023-02-26T01:53:29;96191.69;;;-1.60;94.86
36598;BME280;22607;49.550;11.940;2023-02-26T01:56:00;96195.31;;;-1.63;96.57
36598;BME280;22607;49.550;11.940;2023-02-26T01:58:31;96190.38;;;-1.66;97.78
36598;BME280;22607;49.550;11.940;2023-02-26T02:01:00;96201.41;;;-1.64;99.00
36598;BME280;22607;49.550;11.940;2023-02-26T02:03:29;96201.72;;;-1.68;99.31
36598;BME280;22607;49.550;11.940;2023-02-26T02:06:09;96202.66;;;-1.69;99.23
36598;BME280;22607;49.550;11.940;2023-02-26T02:08:39;96199.88;;;-1.66;99.95
36598;BME280;22607;49.550;11.940;2023-02-26T02:11:09;96200.75;;;-1.79;100.00
36598;BME280;22607;49.550;11.940;2023-02-26T02:14:00;96212.84;;;-1.68;100.00
36598;BME280;22607;49.550;11.940;2023-02-26T02:16:46;96218.19;;;-1.82;98.67
36598;BME280;22607;49.550;11.940;2023-02-26T02:31:39;96220.69;;;-1.94;100.00
36598;BME280;22607;49.550;11.940;2023-02-26T02:34:11;96228.94;;;-1.89;100.00
36598;BME280;22607;49.550;11.940;2023-02-26T02:37:29;96227.50;;;-1.93;97.79
36598;BME280;22607;49.550;11.940;2023-02-26T02:42:48;96220.19;;;-1.99;99.54
36598;BME280;22607;49.550;11.940;2023-02-26T02:48:13;96227.75;;;-2.09;99.35
36598;BME280;22607;49.550;11.940;2023-02-26T02:50:49;96232.38;;;-2.01;98.43
36598;BME280;22607;49.550;11.940;2023-02-26T02:53:27;96231.97;;;-2.08;96.54
36598;BME280;22607;49.550;11.940;2023-02-26T02:56:03;96228.72;;;-2.23;99.11
36598;BME280;22607;49.550;11.940;2023-02-26T02:58:36;96237.81;;;-2.30;99.14
36598;BME280;22607;49.550;11.940;2023-02-26T03:01:06;96241.00;;;-2.40;100.00
36598;BME280;22607;49.550;11.940;2023-02-26T03:04:04;96236.81;;;-2.54;100.00
36598;BME280;22607;49.550;11.940;2023-02-26T03:06:33;96249.56;;;-2.52;100.00
36598;BME280;22607;49.550;11.940;2023-02-26T03:09:01;96251.00;;;-2.48;100.00
36598;BME280;22607;49.550;11.940;2023-02-26T03:11:30;96256.84;;;-2.33;100.00
36598;BME280;22607;49.550;11.940;2023-02-26T03:13:58;96255.13;;;-2.45;100.00
36598;BME280;22607;49.550;11.940;2023-02-26T03:22:12;96276.41;;;-2.56;100.00
36598;BME280;22607;49.550;11.940;2023-02-26T03:25:26;96281.97;;;-2.49;100.00
36598;BME280;22607;49.550;11.940;2023-02-26T03:28:25;96270.00;;;-2.38;100.00
36598;BME280;22607;49.550;11.940;2023-02-26T03:31:19;96272.38;;;-2.34;100.00
36598;BME280;22607;49.550;11.940;2023-02-26T03:36:52;96284.50;;;-2.37;100.00
36598;BME280;22607;49.550;11.940;2023-02-26T03:39:34;96290.38;;;-2.34;100.00
36598;BME280;22607;49.550;11.940;2023-02-26T03:42:35;96297.69;;;-2.28;100.00
36598;BME280;22607;49.550;11.940;2023-02-26T03:45:10;96296.34;;;-2.21;100.00
36598;BME280;22607;49.550;11.940;2023-02-26T03:47:40;96298.91;;;-2.21;100.00
36598;BME280;22607;49.550;11.940;2023-02-26T03:50:12;96300.88;;;-2.38;100.00
36598;BME280;22607;49.550;11.940;2023-02-26T03:52:44;96306.13;;;-2.26;100.00
36598;BME280;22607;49.550;11.940;2023-02-26T03:55:21;96306.53;;;-2.32;100.00
36598;BME280;22607;49.550;11.940;2023-02-26T03:57:51;96309.72;;;-2.42;100.00
36598;BME280;22607;49.550;11.940;2023-02-26T04:00:18;96302.75;;;-2.40;100.00
36598;BME280;22607;49.550;11.940;2023-02-26T04:02:58;96315.19;;;-2.33;100.00
36598;BME280;22607;49.550;11.940;2023-02-26T04:05:35;96322.97;;;-2.22;100.00
36598;BME280;22607;49.550;11.940;2023-02-26T04:08:10;96322.16;;;-2.22;100.00
36598;BME280;22607;49.550;11.940;2023-02-26T04:10:43;96332.44;;;-2.09;100.00
36598;BME280;22607;49.550;11.940;2023-02-26T04:13:10;96322.34;;;-2.13;100.00
36598;BME280;22607;49.550;11.940;2023-02-26T04:15:38;96326.84;;;-2.03;100.00
36598;BME280;22607;49.550;11.940;2023-02-26T04:18:04;96331.41;;;-2.07;100.00
36598;BME280;22607;49.550;11.940;2023-02-26T04:20:32;96331.63;;;-2.10;100.00
36598;BME280;22607;49.550;11.940;2023-02-26T04:22:59;96332.63;;;-2.00;100.00
36598;BME280;22607;49.550;11.940;2023-02-26T04:25:26;96331.22;;;-2.17;100.00
36598;BME280;22607;49.550;11.940;2023-02-26T04:27:53;96332.25;;;-2.06;100.00
36598;BME280;22607;49.550;11.940;2023-02-26T04:30:21;96334.56;;;-2.03;100.00
36598;BME280;22607;49.550;11.940;2023-02-26T04:32:48;96328.78;;;-1.94;100.00
36598;BME280;22607;49.550;11.940;2023-02-26T04:35:17;96333.69;;;-2.02;100.00
36598;BME280;22607;49.550;11.940;2023-02-26T04:37:44;96337.78;;;-2.00;100.00
36598;BME280;22607;49.550;11.940;2023-02-26T04:40:11;96342.59;;;-1.95;100.00
36598;BME280;22607;49.550;11.940;2023-02-26T04:42:38;96345.41;;;-1.98;100.00
36598;BME280;22607;49.550;11.940;2023-02-26T04:45:05;96346.63;;;-1.91;100.00
36598;BME280;22607;49.550;11.940;2023-02-26T04:47:39;96347.13;;;-1.86;100.00
36598;BME280;22607;49.550;11.940;2023-02-26T04:50:06;96348.34;;;-1.78;100.00
36598;BME280;22607;49.550;11.940;2023-02-26T04:52:34;96345.97;;;-1.81;100.00
36598;BME280;22607;49.550;11.940;2023-02-26T04:55:01;96345.22;;;-1.70;100.00
36598;BME280;22607;49.550;11.940;2023-02-26T04:57:27;96351.09;;;-1.68;100.00
36598;BME280;22607;49.550;11.940;2023-02-26T04:59:54;96350.03;;;-1.66;100.00
36598;BME280;22607;49.550;11.940;2023-02-26T05:02:20;96352.31;;;-1.61;100.00
36598;BME280;22607;49.550;11.940;2023-02-26T05:04:47;96349.28;;;-1.79;100.00
36598;BME280;22607;49.550;11.940;2023-02-26T05:07:14;96354.81;;;-1.73;100.00
36598;BME280;22607;49.550;11.940;2023-02-26T05:09:40;96357.72;;;-1.77;100.00
36598;BME280;22607;49.550;11.940;2023-02-26T05:12:07;96354.53;;;-1.81;100.00
36598;BME280;22607;49.550;11.940;2023-02-26T05:14:33;96360.56;;;-1.69;100.00
36598;BME280;22607;49.550;11.940;2023-02-26T05:17:00;96366.53;;;-1.68;100.00
36598;BME280;22607;49.550;11.940;2023-02-26T05:19:27;96365.72;;;-1.69;100.00
36598;BME280;22607;49.550;11.940;2023-02-26T05:21:53;96368.94;;;-1.78;100.00
36598;BME280;22607;49.550;11.940;2023-02-26T05:24:20;96364.09;;;-1.83;100.00
36598;BME280;22607;49.550;11.940;2023-02-26T05:26:46;96373.66;;;-1.72;100.00
36598;BME280;22607;49.550;11.940;2023-02-26T05:29:12;96365.72;;;-1.69;100.00
36598;BME280;22607;49.550;11.940;2023-02-26T05:31:39;96368.22;;;-1.80;100.00
36598;BME280;22607;49.550;11.940;2023-02-26T05:34:06;96366.53;;;-1.68;100.00
36598;BME280;22607;49.550;11.940;2023-02-26T05:36:32;96371.09;;;-1.72;100.00
36598;BME280;22607;49.550;11.940;2023-02-26T05:39:00;96384.38;;;-1.78;100.00
36598;BME280;22607;49.550;11.940;2023-02-26T05:41:26;96381.59;;;-1.75;100.00
36598;BME280;22607;49.550;11.940;2023-02-26T05:43:53;96388.31;;;-1.86;100.00
36598;BME280;22607;49.550;11.940;2023-02-26T05:46:21;96386.38;;;-1.95;100.00
36598;BME280;22607;49.550;11.940;2023-02-26T05:48:48;96384.59;;;-1.81;100.00
36598;BME280;22607;49.550;11.940;2023-02-26T05:51:16;96390.28;;;-1.89;100.00
36598;BME280;22607;49.550;11.940;2023-02-26T05:53:43;96395.31;;;-1.88;100.00
36598;BME280;22607;49.550;11.940;2023-02-26T05:56:11;96409.44;;;-1.93;100.00
36598;BME280;22607;49.550;11.940;2023-02-26T05:58:38;96408.59;;;-1.94;100.00
36598;BME280;22607;49.550;11.940;2023-02-26T06:01:04;96417.88;;;-2.04;100.00
36598;BME280;22607;49.550;11.940;2023-02-26T06:03:31;96415.19;;;-2.03;100.00
36598;BME280;22607;49.550;11.940;2023-02-26T06:05:57;96428.25;;;-2.06;100.00
36598;BME280;22607;49.550;11.940;2023-02-26T06:08:24;96431.56;;;-2.04;100.00
36598;BME280;22607;49.550;11.940;2023-02-26T06:10:50;96438.56;;;-2.06;100.00
36598;BME280;22607;49.550;11.940;2023-02-26T06:13:17;96435.78;;;-2.16;100.00
36598;BME280;22607;49.550;11.940;2023-02-26T06:15:44;96442.56;;;-2.02;100.00
36598;BME280;22607;49.550;11.940;2023-02-26T06:18:12;96452.78;;;-2.00;100.00
36598;BME280;22607;49.550;11.940;2023-02-26T06:20:39;96455.47;;;-1.89;100.00
36598;BME280;22607;49.550;11.940;2023-02-26T06:23:05;96452.69;;;-1.99;100.00
36598;BME280;22607;49.550;11.940;2023-02-26T06:25:32;96460.19;;;-2.08;100.00
36598;BME280;22607;49.550;11.940;2023-02-26T06:27:58;96459.06;;;-2.04;100.00
36598;BME280;22607;49.550;11.940;2023-02-26T06:30:26;96467.19;;;-1.85;100.00
36598;BME280;22607;49.550;11.940;2023-02-26T06:32:53;96468.22;;;-1.87;100.00
36598;BME280;22607;49.550;11.940;2023-02-26T06:35:19;96475.84;;;-1.99;100.00
36598;BME280;22607;49.550;11.940;2023-02-26T06:37:46;96482.75;;;-1.73;100.00
36598;BME280;22607;49.550;11.940;2023-02-26T06:40:12;96486.03;;;-1.71;100.00
36598;BME280;22607;49.550;11.940;2023-02-26T06:42:39;96485.63;;;-1.65;100.00
36598;BME280;22607;49.550;11.940;2023-02-26T06:45:06;96493.88;;;-1.60;100.00
36598;BME280;22607;49.550;11.940;2023-02-26T06:47:33;96497.38;;;-1.61;100.00
36598;BME280;22607;49.550;11.940;2023-02-26T06:49:59;96507.03;;;-1.51;100.00
36598;BME280;22607;49.550;11.940;2023-02-26T06:52:26;96501.88;;;-1.38;100.00
36598;BME280;22607;49.550;11.940;2023-02-26T06:54:52;96509.59;;;-1.38;100.00
36598;BME280;22607;49.550;11.940;2023-02-26T06:57:20;96517.81;;;-1.20;100.00
36598;BME280;22607;49.550;11.940;2023-02-26T06:59:47;96514.59;;;-1.11;100.00
36598;BME280;22607;49.550;11.940;2023-02-26T07:02:18;96519.88;;;-0.88;100.00
36598;BME280;22607;49.550;11.940;2023-02-26T07:04:45;96530.97;;;-0.74;100.00
36598;BME280;22607;49.550;11.940;2023-02-26T07:07:12;96522.09;;;-0.70;100.00
36598;BME280;22607;49.550;11.940;2023-02-26T07:09:39;96538.56;;;-0.60;99.35
36598;BME280;22607;49.550;11.940;2023-02-26T07:12:05;96532.84;;;-0.28;95.97
36598;BME280;22607;49.550;11.940;2023-02-26T07:14:35;96545.81;;;-0.16;93.80
36598;BME280;22607;49.550;11.940;2023-02-26T07:17:05;96541.31;;;-0.25;94.48
36598;BME280;22607;49.550;11.940;2023-02-26T07:19:31;96548.81;;;-0.22;93.99
36598;BME280;22607;49.550;11.940;2023-02-26T07:21:58;96547.38;;;-0.27;93.69
36598;BME280;22607;49.550;11.940;2023-02-26T07:24:24;96556.72;;;-0.37;95.72
36598;BME280;22607;49.550;11.940;2023-02-26T07:26:51;96559.00;;;-0.32;93.71
36598;BME280;22607;49.550;11.940;2023-02-26T07:29:17;96554.84;;;-0.10;95.33
36598;BME280;22607;49.550;11.940;2023-02-26T07:31:46;96558.44;;;0.23;90.38
36598;BME280;22607;49.550;11.940;2023-02-26T07:34:12;96569.53;;;1.16;84.07
36598;BME280;22607;49.550;11.940;2023-02-26T07:36:39;96567.75;;;1.73;80.71
36598;BME280;22607;49.550;11.940;2023-02-26T07:39:09;96562.63;;;1.61;76.67
36598;BME280;22607;49.550;11.940;2023-02-26T07:41:37;96573.78;;;1.17;80.81
36598;BME280;22607;49.550;11.940;2023-02-26T07:44:04;96564.91;;;3.13;71.44
36598;BME280;22607;49.550;11.940;2023-02-26T07:46:31;96559.81;;;3.83;68.75
36598;BME280;22607;49.550;11.940;2023-02-26T07:48:58;96572.28;;;4.18;66.26
36598;BME280;22607;49.550;11.940;2023-02-26T07:51:25;96574.19;;;3.06;68.61
36598;BME280;22607;49.550;11.940;2023-02-26T07:53:52;96582.72;;;3.38;68.86
36598;BME280;22607;49.550;11.940;2023-02-26T07:56:19;96583.44;;;2.46;69.92
36598;BME280;22607;49.550;11.940;2023-02-26T07:58:46;96578.00;;;2.07;72.66
36598;BME280;22607;49.550;11.940;2023-02-26T08:01:13;96591.16;;;1.82;73.11
36598;BME280;22607;49.550;11.940;2023-02-26T08:03:40;96595.16;;;1.42;78.51
36598;BME280;22607;49.550;11.940;2023-02-26T08:06:07;96594.47;;;1.29;79.55
36598;BME280;22607;49.550;11.940;2023-02-26T08:08:34;96606.00;;;1.13;80.85
36598;BME280;22607;49.550;11.940;2023-02-26T08:11:04;96608.34;;;1.16;81.61
36598;BME280;22607;49.550;11.940;2023-02-26T08:13:37;96605.56;;;1.64;78.35
36598;BME280;22607;49.550;11.940;2023-02-26T08:16:03;96605.00;;;1.49;80.38
36598;BME280;22607;49.550;11.940;2023-02-26T08:18:30;96610.81;;;1.29;78.91
36598;BME280;22607;49.550;11.940;2023-02-26T08:20:56;96615.28;;;1.04;82.70
36598;BME280;22607;49.550;11.940;2023-02-26T08:23:24;96612.44;;;1.19;82.05
36598;BME280;22607;49.550;11.940;2023-02-26T08:26:03;96624.00;;;1.38;79.51
36598;BME280;22607;49.550;11.940;2023-02-26T08:31:00;96628.91;;;1.18;80.84
36598;BME280;22607;49.550;11.940;2023-02-26T08:33:27;96627.28;;;1.40;80.93
36598;BME280;22607;49.550;11.940;2023-02-26T08:35:55;96630.69;;;1.29;77.44
36598;BME280;22607;49.550;11.940;2023-02-26T08:38:25;96646.31;;;1.50;77.62
36598;BME280;22607;49.550;11.940;2023-02-26T08:40:52;96648.75;;;1.63;77.91
36598;BME280;22607;49.550;11.940;2023-02-26T08:43:19;96654.28;;;1.70;74.71
36598;BME280;22607;49.550;11.940;2023-02-26T08:45:51;96658.44;;;1.50;76.72
36598;BME280;22607;49.550;11.940;2023-02-26T08:48:18;96652.44;;;1.49;81.67
36598;BME280;22607;49.550;11.940;2023-02-26T08:50:46;96653.75;;;1.88;75.08
36598;BME280;22607;49.550;11.940;2023-02-26T08:53:13;96654.56;;;2.32;75.39
36598;BME280;22607;49.550;11.940;2023-02-26T08:55:41;96659.78;;;2.21;73.80
36598;BME280;22607;49.550;11.940;2023-02-26T08:58:11;96662.38;;;2.21;74.10
36598;BME280;22607;49.550;11.940;2023-02-26T09:00:38;96666.16;;;2.17;73.29
36598;BME280;22607;49.550;11.940;2023-02-26T09:03:07;96670.38;;;1.96;73.74
36598;BME280;22607;49.550;11.940;2023-02-26T09:05:34;96677.53;;;2.04;73.90
36598;BME280;22607;49.550;11.940;2023-02-26T09:08:00;96684.34;;;2.05;73.68
36598;BME280;22607;49.550;11.940;2023-02-26T09:10:28;96691.22;;;2.28;73.57
36598;BME280;22607;49.550;11.940;2023-02-26T09:12:57;96694.63;;;2.28;71.91
36598;BME280;22607;49.550;11.940;2023-02-26T09:15:25;96694.19;;;2.12;74.68
36598;BME280;22607;49.550;11.940;2023-02-26T09:17:53;96691.09;;;2.83;70.29
36598;BME280;22607;49.550;11.940;2023-02-26T09:20:20;96692.75;;;3.47;67.84
36598;BME280;22607;49.550;11.940;2023-02-26T09:22:53;96687.13;;;3.41;67.81
36598;BME280;22607;49.550;11.940;2023-02-26T09:25:28;96690.75;;;3.60;67.28
36598;BME280;22607;49.550;11.940;2023-02-26T09:27:56;96696.91;;;3.59;66.07
36598;BME280;22607;49.550;11.940;2023-02-26T09:30:24;96701.91;;;2.88;66.37
36598;BME280;22607;49.550;11.940;2023-02-26T09:32:50;96708.94;;;2.44;68.97
36598;BME280;22607;49.550;11.940;2023-02-26T09:35:17;96714.03;;;2.01;70.96
36598;BME280;22607;49.550;11.940;2023-02-26T09:37:43;96718.81;;;1.62;74.72
36598;BME280;22607;49.550;11.940;2023-02-26T09:40:24;96715.63;;;1.47;75.06
36598;BME280;22607;49.550;11.940;2023-02-26T09:45:33;96732.31;;;1.42;76.27
36598;BME280;22607;49.550;11.940;2023-02-26T09:48:03;96738.06;;;1.23;77.73
36598;BME280;22607;49.550;11.940;2023-02-26T09:50:38;96741.47;;;1.24;77.36
36598;BME280;22607;49.550;11.940;2023-02-26T09:53:22;96748.88;;;1.28;77.45
36598;BME280;22607;49.550;11.940;2023-02-26T09:55:52;96745.13;;;1.21;80.09
36598;BME280;22607;49.550;11.940;2023-02-26T09:58:32;96744.81;;;1.60;79.02
36598;BME280;22607;49.550;11.940;2023-02-26T10:01:08;96747.75;;;1.67;79.21
36598;BME280;22607;49.550;11.940;2023-02-26T10:03:58;96753.28;;;1.51;77.37
36598;BME280;22607;49.550;11.940;2023-02-26T10:06:31;96765.28;;;1.40;76.91
36598;BME280;22607;49.550;11.940;2023-02-26T10:11:59;96770.66;;;1.49;80.10
36598;BME280;22607;49.550;11.940;2023-02-26T10:14:34;96778.09;;;1.53;79.00
36598;BME280;22607;49.550;11.940;2023-02-26T10:17:34;96780.81;;;1.75;80.39
36598;BME280;22607;49.550;11.940;2023-02-26T10:20:22;96789.75;;;1.70;80.50
36598;BME280;22607;49.550;11.940;2023-02-26T10:23:01;96791.59;;;1.34;82.65
36598;BME280;22607;49.550;11.940;2023-02-26T10:25:43;96802.00;;;1.10;89.82
36598;BME280;22607;49.550;11.940;2023-02-26T10:31:32;96797.16;;;1.64;89.84
36598;BME280;22607;49.550;11.940;2023-02-26T10:36:47;96787.97;;;2.05;83.77
36598;BME280;22607;49.550;11.940;2023-02-26T10:39:31;96798.81;;;1.88;79.98
36598;BME280;22607;49.550;11.940;2023-02-26T10:42:28;96798.56;;;1.79;81.78
36598;BME280;22607;49.550;11.940;2023-02-26T10:50:09;96798.88;;;2.32;75.35
36598;BME280;22607;49.550;11.940;2023-02-26T10:52:37;96802.19;;;2.22;77.18
36598;BME280;22607;49.550;11.940;2023-02-26T10:57:47;96803.09;;;2.44;70.30
36598;BME280;22607;49.550;11.940;2023-02-26T11:00:18;96788.94;;;2.81;67.73
36598;BME280;22607;49.550;11.940;2023-02-26T11:02:48;96794.53;;;2.65;69.31
36598;BME280;22607;49.550;11.940;2023-02-26T11:05:26;96796.66;;;2.27;69.21
36598;BME280;22607;49.550;11.940;2023-02-26T11:07:56;96790.06;;;2.23;66.37
36598;BME280;22607;49.550;11.940;2023-02-26T11:10:38;96794.03;;;3.04;65.61
36598;BME280;22607;49.550;11.940;2023-02-26T11:13:07;96786.78;;;3.72;62.53
36598;BME280;22607;49.550;11.940;2023-02-26T11:15:34;96783.13;;;4.35;62.77
36598;BME280;22607;49.550;11.940;2023-02-26T11:18:01;96786.44;;;4.57;61.47
36598;BME280;22607;49.550;11.940;2023-02-26T11:20:33;96792.34;;;3.98;62.16
36598;BME280;22607;49.550;11.940;2023-02-26T11:23:02;96791.63;;;3.86;60.82
36598;BME280;22607;49.550;11.940;2023-02-26T11:25:31;96788.59;;;3.50;64.90
36598;BME280;22607;49.550;11.940;2023-02-26T11:28:05;96788.28;;;3.43;62.78
36598;BME280;22607;49.550;11.940;2023-02-26T11:30:36;96786.63;;;3.42;63.70
36598;BME280;22607;49.550;11.940;2023-02-26T11:33:13;96795.00;;;3.24;61.86
36598;BME280;22607;49.550;11.940;2023-02-26T11:35:41;96791.63;;;2.58;63.28
36598;BME280;22607;49.550;11.940;2023-02-26T11:38:15;96797.44;;;2.83;61.29
36598;BME280;22607;49.550;11.940;2023-02-26T11:40:50;96800.69;;;2.97;62.39
36598;BME280;22607;49.550;11.940;2023-02-26T11:43:22;96788.28;;;3.43;61.72
36598;BME280;22607;49.550;11.940;2023-02-26T11:45:56;96788.38;;;3.41;58.86
36598;BME280;22607;49.550;11.940;2023-02-26T11:48:27;96776.84;;;3.87;60.14
36598;BME280;22607;49.550;11.940;2023-02-26T11:50:59;96783.28;;;4.43;60.55
36598;BME280;22607;49.550;11.940;2023-02-26T11:53:35;96783.53;;;3.89;60.42
36598;BME280;22607;49.550;11.940;2023-02-26T11:56:14;96794.91;;;3.14;61.70
36598;BME280;22607;49.550;11.940;2023-02-26T11:58:44;96789.91;;;3.23;60.52
36598;BME280;22607;49.550;11.940;2023-02-26T12:01:12;96792.75;;;2.98;61.17
36598;BME280;22607;49.550;11.940;2023-02-26T12:03:44;96787.28;;;3.34;61.11
36598;BME280;22607;49.550;11.940;2023-02-26T12:06:17;96783.44;;;3.38;60.77
36598;BME280;22607;49.550;11.940;2023-02-26T12:08:45;96784.78;;;3.54;60.57
36598;BME280;22607;49.550;11.940;2023-02-26T12:17:12;96772.97;;;3.71;57.92
36598;BME280;22607;49.550;11.940;2023-02-26T12:20:06;96777.91;;;3.74;58.18
36598;BME280;22607;49.550;11.940;2023-02-26T12:28:41;96781.63;;;3.08;60.79
36598;BME280;22607;49.550;11.940;2023-02-26T12:31:39;96788.78;;;3.15;60.37
36598;BME280;22607;49.550;11.940;2023-02-26T12:45:59;96788.63;;;2.74;62.15
36598;BME280;22607;49.550;11.940;2023-02-26T12:51:35;96781.25;;;3.12;59.96
36598;BME280;22607;49.550;11.940;2023-02-26T13:02:21;96803.06;;;2.88;61.24
36598;BME280;22607;49.550;11.940;2023-02-26T13:16:39;96802.72;;;2.49;64.35
36598;BME280;22607;49.550;11.940;2023-02-26T13:19:33;96805.47;;;2.80;65.18
36598;BME280;22607;49.550;11.940;2023-02-26T13:22:14;96806.78;;;2.74;63.62
36598;BME280;22607;49.550;11.940;2023-02-26T13:27:48;96795.56;;;3.28;62.04
36598;BME280;22607;49.550;11.940;2023-02-26T13:30:28;96810.69;;;2.69;60.37
36598;BME280;22607;49.550;11.940;2023-02-26T13:32:58;96809.66;;;2.60;59.21
36598;BME280;22607;49.550;11.940;2023-02-26T13:35:34;96795.78;;;2.49;59.37
36598;BME280;22607;49.550;11.940;2023-02-26T13:41:21;96802.66;;;2.72;59.66
36598;BME280;22607;49.550;11.940;2023-02-26T13:44:06;96808.16;;;2.90;61.52
36598;BME280;22607;49.550;11.940;2023-02-26T13:46:47;96810.75;;;2.79;62.26
36598;BME280;22607;49.550;11.940;2023-02-26T13:51:51;96830.34;;;1.93;72.21
36598;BME280;22607;49.550;11.940;2023-02-26T13:59:35;96844.97;;;1.82;78.74
36598;BME280;22607;49.550;11.940;2023-02-26T14:02:29;96840.22;;;1.53;76.99
36598;BME280;22607;49.550;11.940;2023-02-26T14:04:59;96843.81;;;1.28;78.33
36598;BME280;22607;49.550;11.940;2023-02-26T14:07:47;96845.63;;;1.50;74.72
36598;BME280;22607;49.550;11.940;2023-02-26T14:10:27;96852.69;;;1.48;75.62
36598;BME280;22607;49.550;11.940;2023-02-26T14:24:15;96837.31;;;2.71;72.76
36598;BME280;22607;49.550;11.940;2023-02-26T14:27:07;96842.41;;;2.61;65.21
36598;BME280;22607;49.550;11.940;2023-02-26T14:35:30;96853.44;;;2.19;64.76
36598;BME280;22607;49.550;11.940;2023-02-26T14:38:07;96864.47;;;2.55;65.67
36598;BME280;22607;49.550;11.940;2023-02-26T14:40:45;96866.38;;;2.42;67.48
36598;BME280;22607;49.550;11.940;2023-02-26T14:43:23;96870.41;;;2.00;69.69
36598;BME280;22607;49.550;11.940;2023-02-26T14:45:56;96869.19;;;1.70;69.80
36598;BME280;22607;49.550;11.940;2023-02-26T14:48:23;96875.19;;;1.59;71.11
36598;BME280;22607;49.550;11.940;2023-02-26T14:53:55;96886.84;;;1.65;71.73
36598;BME280;22607;49.550;11.940;2023-02-26T15:08:00;96879.53;;;1.47;65.42
36598;BME280;22607;49.550;11.940;2023-02-26T15:10:35;96890.63;;;1.72;67.57
36598;BME280;22607;49.550;11.940;2023-02-26T15:13:31;96899.56;;;1.68;67.28
36598;BME280;22607;49.550;11.940;2023-02-26T15:21:40;96907.00;;;1.84;64.76
36598;BME280;22607;49.550;11.940;2023-02-26T15:24:11;96899.66;;;1.55;63.54
36598;BME280;22607;49.550;11.940;2023-02-26T15:26:48;96913.53;;;1.54;65.13
36598;BME280;22607;49.550;11.940;2023-02-26T15:29:16;96910.13;;;1.53;65.42
36598;BME280;22607;49.550;11.940;2023-02-26T15:31:52;96900.56;;;1.54;65.09
36598;BME280;22607;49.550;11.940;2023-02-26T15:34:20;96912.19;;;1.37;64.83
36598;BME280;22607;49.550;11.940;2023-02-26T15:36:49;96916.94;;;1.43;65.71
36598;BME280;22607;49.550;11.940;2023-02-26T15:39:21;96910.81;;;1.55;64.64
36598;BME280;22607;49.550;11.940;2023-02-26T15:41:50;96925.06;;;1.50;65.96
36598;BME280;22607;49.550;11.940;2023-02-26T15:44:20;96930.34;;;1.48;65.61
36598;BME280;22607;49.550;11.940;2023-02-26T15:46:57;96931.53;;;1.55;64.35
36598;BME280;22607;49.550;11.940;2023-02-26T15:49:40;96938.50;;;1.30;65.49
36598;BME280;22607;49.550;11.940;2023-02-26T15:52:11;96953.47;;;1.38;65.68
36598;BME280;22607;49.550;11.940;2023-02-26T15:54:43;96956.44;;;1.21;65.85